Vision of The Seas — C6SE8 — position and weather

sailwx.info

Track history (hours):
 
Tides and Currents Weather Stations Pressure Air Temp Water Temp Dewpoint Dewpoint Depression Visibility Wind Speed Wind Dir Waves Ship Positions

Vision of The Seas

Operator: Royal Caribbean Cruises Ltd

Last reported at 2018-Jun-22 02:34 UTC. Time now 2018-Jun-22 08:58 UTC.
Position N 41°55' E 011°15'.

Type: Passenger vessel. MMSI: 311321000.

Date/timePositionNaut miles runAvg speedWind from/ knotsBaromVisibWave heightAir tempDewpointWater temp
2018-Jun-22 02:34N 41°55' E 011°15'111.0
2018-Jun-22 02:27N 41°56' E 011°13'510.1
2018-Jun-22 01:55N 41°58' E 011°07'4 9.9
2018-Jun-22 01:30N 41°59' E 011°01'5 9.8
2018-Jun-22 01:00N 42°00' E 010°55'714.3
2018-Jun-22 00:30N 42°05' E 010°47'714.8
2018-Jun-22 00:00N 42°11' E 010°41'714.9
2018-Jun-21 23:30N 42°17' E 010°35'714.9
2018-Jun-21 23:00N 42°23' E 010°30'714.9
2018-Jun-21 22:30N 42°28' E 010°23'1515.1
2018-Jun-21 21:31N 42°39' E 010°08'014.8
2018-Jun-21 21:30N 42°39' E 010°08'815.1
2018-Jun-21 21:00N 42°44' E 010°01'714.8
2018-Jun-21 20:30N 42°52' E 009°60'815.2
2018-Jun-21 20:00N 42°59' E 010°01'715.0
2018-Jun-21 19:30N 43°06' E 010°03'815.2
2018-Jun-21 19:00N 43°14' E 010°05'815.2
2018-Jun-21 18:30N 43°21' E 010°06'815.1
2018-Jun-21 18:00N 43°29' E 010°08'713.2
2018-Jun-21 17:31N 43°32' E 010°16'2 3.4
2018-Jun-21 17:00N 43°33' E 010°18'0 0.0
2018-Jun-21 16:30N 43°33' E 010°18'0 0.0
2018-Jun-21 16:00N 43°33' E 010°18'0 0.0
2018-Jun-21 15:30N 43°33' E 010°18'0 0.0
2018-Jun-21 15:00N 43°33' E 010°18'0 0.0
2018-Jun-21 14:30N 43°33' E 010°18'0 0.0
2018-Jun-21 13:57N 43°33' E 010°18'0 0.0
2018-Jun-21 13:30N 43°33' E 010°18'0 0.0
2018-Jun-21 13:00N 43°33' E 010°18'0 0.0
2018-Jun-21 12:30N 43°33' E 010°18'0 0.0
2018-Jun-21 11:57N 43°33' E 010°18'0 0.0
2018-Jun-21 11:30N 43°33' E 010°18'0 0.0
2018-Jun-21 11:00N 43°33' E 010°18'0 0.0
2018-Jun-21 10:30N 43°33' E 010°18'0 0.0
2018-Jun-21 09:57N 43°33' E 010°18'0 0.0
2018-Jun-21 09:24N 43°33' E 010°18'0 0.0
2018-Jun-21 08:51N 43°33' E 010°18'0 0.0
2018-Jun-21 08:30N 43°33' E 010°18'0 0.0
2018-Jun-21 07:54N 43°33' E 010°18'0 0.0
2018-Jun-21 07:30N 43°33' E 010°18'0 0.0
2018-Jun-21 06:57N 43°33' E 010°18'0 0.0
2018-Jun-21 06:30N 43°33' E 010°18'0 0.0
2018-Jun-21 06:00N 43°33' E 010°18'0 0.0
2018-Jun-21 05:30N 43°33' E 010°18'0 0.0
2018-Jun-21 05:00N 43°33' E 010°18'0 0.0
2018-Jun-21 04:30N 43°33' E 010°18'1 2.2
2018-Jun-21 04:00N 43°32' E 010°17'4 8.3
2018-Jun-21 03:30N 43°30' E 010°13'611.9
2018-Jun-21 03:00N 43°29' E 010°05'612.2
2018-Jun-21 02:30N 43°31' E 009°56'612.3
2018-Jun-21 02:00N 43°32' E 009°48'612.5
2018-Jun-21 01:30N 43°33' E 009°39'612.3
2018-Jun-21 01:00N 43°33' E 009°31'612.4
2018-Jun-21 00:30N 43°34' E 009°22'612.4
2018-Jun-21 00:00N 43°34' E 009°14'4303.8
2018-Jun-21 00:00N 43°30' E 009°12'713.8 200 / 41014.010.8 24.021.122.0
2018-Jun-20 23:30N 43°35' E 009°05'612.5
2018-Jun-20 23:00N 43°35' E 008°57'612.5
2018-Jun-20 22:30N 43°35' E 008°48'612.6
2018-Jun-20 22:00N 43°35' E 008°39'612.5
2018-Jun-20 21:30N 43°36' E 008°31'612.6
2018-Jun-20 21:00N 43°36' E 008°22'612.8
2018-Jun-20 20:30N 43°37' E 008°13'613.1
2018-Jun-20 20:00N 43°37' E 008°04'612.6
2018-Jun-20 19:31N 43°37' E 007°56'612.5
2018-Jun-20 19:00N 43°38' E 007°47'1212.6
2018-Jun-20 18:02N 43°39' E 007°30'212.7
2018-Jun-20 17:52N 43°39' E 007°27'512.5
2018-Jun-20 17:30N 43°39' E 007°21'2 0.2
2018-Jun-20 06:32N 43°40' E 007°19'1 8.2
2018-Jun-20 06:28N 43°39' E 007°18'916.1
2018-Jun-20 05:56N 43°32' E 007°12'716.9
2018-Jun-20 05:30N 43°26' E 007°06'816.7
2018-Jun-20 05:00N 43°20' E 006°59'816.7
2018-Jun-20 04:30N 43°13' E 006°52'816.8
2018-Jun-20 04:00N 43°07' E 006°45'816.7
2018-Jun-20 03:30N 43°01' E 006°37'816.7
2018-Jun-20 03:00N 42°55' E 006°29'816.8
2018-Jun-20 02:31N 42°50' E 006°19'917.1
2018-Jun-20 02:00N 42°46' E 006°09'917.3
2018-Jun-20 01:30N 42°42' E 005°58'917.7
2018-Jun-20 00:59N 42°38' E 005°47'1918.9
2018-Jun-20 00:00N 42°30' E 005°24'7618.9 290 / 141015.010.8 21.019.521.0
2018-Jun-19 20:00N 41°54' E 003°54'1816.6 250 / 51015.0 22.017.4
2018-Jun-19 18:53N 41°48' E 003°31'920.1
2018-Jun-19 18:25N 41°43' E 003°20'820.2
2018-Jun-19 18:00N 41°39' E 003°10'1020.1
2018-Jun-19 17:29N 41°34' E 002°58'1020.2
2018-Jun-19 17:00N 41°30' E 002°46'1020.2
2018-Jun-19 16:30N 41°25' E 002°34'1020.0
2018-Jun-19 16:00N 41°20' E 002°23'1019.5
2018-Jun-19 15:31N 41°16' E 002°11'510.5
2018-Jun-19 15:00N 41°21' E 002°10'1 1.5
2018-Jun-19 14:28N 41°22' E 002°11'0 0.0
2018-Jun-19 13:58N 41°22' E 002°11'0 0.0
2018-Jun-19 13:28N 41°22' E 002°11'0 0.0
2018-Jun-19 12:58N 41°22' E 002°11'0 0.0
2018-Jun-19 12:28N 41°22' E 002°11'0 0.0
2018-Jun-19 11:58N 41°22' E 002°11'0 0.0
2018-Jun-19 11:28N 41°22' E 002°11'0 0.0
2018-Jun-19 10:58N 41°22' E 002°11'0 0.0
2018-Jun-19 10:28N 41°22' E 002°11'0 0.0
2018-Jun-19 09:58N 41°22' E 002°11'0 0.0
2018-Jun-19 09:28N 41°22' E 002°11'0 0.0
2018-Jun-19 08:55N 41°22' E 002°11'0 0.0
2018-Jun-19 08:28N 41°22' E 002°11'0 0.0
2018-Jun-19 07:58N 41°22' E 002°11'0 0.0
2018-Jun-19 07:28N 41°22' E 002°11'0 0.0
2018-Jun-19 06:58N 41°22' E 002°11'0 0.0
2018-Jun-19 06:28N 41°22' E 002°11'0 0.0
2018-Jun-19 05:58N 41°22' E 002°11'0 0.0
2018-Jun-19 05:28N 41°22' E 002°11'0 0.0
2018-Jun-19 04:58N 41°22' E 002°11'0 0.0
2018-Jun-19 04:28N 41°22' E 002°11'0 0.0
2018-Jun-19 03:58N 41°22' E 002°11'0 0.0
2018-Jun-19 03:28N 41°22' E 002°11'0 0.0
2018-Jun-19 02:58N 41°22' E 002°11'0 0.0
2018-Jun-19 02:28N 41°22' E 002°11'0 0.0
2018-Jun-19 01:58N 41°22' E 002°11'0 0.0
2018-Jun-19 01:28N 41°22' E 002°11'0 0.0
2018-Jun-19 00:58N 41°22' E 002°11'0 0.0
2018-Jun-19 00:28N 41°22' E 002°11'0 0.0
2018-Jun-18 23:58N 41°22' E 002°11'0 0.0
2018-Jun-18 23:28N 41°22' E 002°11'0 0.0
2018-Jun-18 22:58N 41°22' E 002°11'0 0.0
2018-Jun-18 22:28N 41°22' E 002°11'0 0.0
2018-Jun-18 21:58N 41°22' E 002°11'0 0.0
2018-Jun-18 21:28N 41°22' E 002°11'0 0.0
2018-Jun-18 20:58N 41°22' E 002°11'0 0.0
2018-Jun-18 20:28N 41°22' E 002°11'0 0.0
2018-Jun-18 19:58N 41°22' E 002°11'0 0.0
2018-Jun-18 19:28N 41°22' E 002°11'0 0.0
2018-Jun-18 18:58N 41°22' E 002°11'0 0.0
2018-Jun-18 18:28N 41°22' E 002°11'0 0.0
2018-Jun-18 17:58N 41°22' E 002°11'0 0.0
2018-Jun-18 17:28N 41°22' E 002°11'0 0.0
2018-Jun-18 16:58N 41°22' E 002°11'0 0.0
2018-Jun-18 16:28N 41°22' E 002°11'0 0.0
2018-Jun-18 15:58N 41°22' E 002°11'0 0.0
2018-Jun-18 15:28N 41°22' E 002°11'0 0.0
2018-Jun-18 14:58N 41°22' E 002°11'0 0.0
2018-Jun-18 14:28N 41°22' E 002°11'0 0.0
2018-Jun-18 13:58N 41°22' E 002°11'0 0.0
2018-Jun-18 13:28N 41°22' E 002°11'0 0.0
2018-Jun-18 12:58N 41°22' E 002°11'0 0.0
2018-Jun-18 12:28N 41°22' E 002°11'0 0.0
2018-Jun-18 11:58N 41°22' E 002°11'0 0.0
2018-Jun-18 11:25N 41°22' E 002°11'0 0.0
2018-Jun-18 10:58N 41°22' E 002°11'0 0.0
2018-Jun-18 10:28N 41°22' E 002°11'0 0.0
2018-Jun-18 09:55N 41°22' E 002°11'0 0.0
2018-Jun-18 09:28N 41°22' E 002°11'0 0.0
2018-Jun-18 08:58N 41°22' E 002°11'0 0.0
2018-Jun-18 08:28N 41°22' E 002°11'0 0.4
2018-Jun-18 08:00N 41°22' E 002°11'2 4.5
2018-Jun-18 07:30N 41°20' E 002°10'510.3
2018-Jun-18 07:00N 41°15' E 002°13'816.5
2018-Jun-18 06:30N 41°16' E 002°24'917.4
2018-Jun-18 05:59N 41°19' E 002°36'11318.9
2018-Jun-18 00:00N 42°06' E 004°54'4820.1
2018-Jun-17 21:36N 42°27' E 005°52'519.3
2018-Jun-17 21:20N 42°29' E 005°58'719.3
2018-Jun-17 21:00N 42°32' E 006°07'1019.4
2018-Jun-17 20:30N 42°36' E 006°18'0 0.7
2018-Jun-17 20:00N 42°36' E 006°18'12125.0 300 / 331008.0 22.017.423.0
2018-Jun-17 19:54N 42°42' E 006°33'819.8
2018-Jun-17 19:30N 42°45' E 006°42'1019.8
2018-Jun-17 19:00N 42°50' E 006°54'1019.6
2018-Jun-17 18:30N 42°54' E 007°06'1020.2
2018-Jun-17 18:00N 42°60' E 007°17'1020.2
2018-Jun-17 17:30N 43°05' E 007°29'1020.1
2018-Jun-17 17:00N 43°11' E 007°40'1020.1
2018-Jun-17 16:30N 43°17' E 007°52'1019.9
2018-Jun-17 16:00N 43°22' E 008°03'1019.9
2018-Jun-17 15:30N 43°29' E 008°13'1019.8
2018-Jun-17 15:00N 43°36' E 008°23'1019.7
2018-Jun-17 14:30N 43°43' E 008°32'1020.2
2018-Jun-17 14:00N 43°52' E 008°38'1020.5
2018-Jun-17 13:30N 44°00' E 008°47'1020.4
2018-Jun-17 13:00N 44°10' E 008°53'1020.1
2018-Jun-17 12:30N 44°19' E 008°58'510.3
2018-Jun-17 12:00N 44°24' E 008°55'1 1.3
2018-Jun-17 11:26N 44°25' E 008°55'0 0.0
2018-Jun-17 10:56N 44°25' E 008°55'0 0.0
2018-Jun-17 10:29N 44°25' E 008°55'0 0.0
2018-Jun-17 09:59N 44°25' E 008°55'0 0.0
2018-Jun-17 09:29N 44°25' E 008°55'0 0.0
2018-Jun-17 08:59N 44°25' E 008°55'0 0.0
2018-Jun-17 08:29N 44°25' E 008°55'0 0.0
2018-Jun-17 07:59N 44°25' E 008°55'0 0.0
2018-Jun-17 07:29N 44°25' E 008°55'0 0.0
2018-Jun-17 06:59N 44°25' E 008°55'0 0.0
2018-Jun-17 06:20N 44°25' E 008°55'0 0.0
2018-Jun-17 05:59N 44°25' E 008°55'0 0.0
2018-Jun-17 05:26N 44°25' E 008°55'0 0.0
2018-Jun-17 04:53N 44°25' E 008°55'0 0.0
2018-Jun-17 04:23N 44°25' E 008°55'0 0.0
2018-Jun-17 03:56N 44°25' E 008°55'0 0.0
2018-Jun-17 03:23N 44°25' E 008°55'0 0.0
2018-Jun-17 02:59N 44°25' E 008°55'0 0.0
2018-Jun-17 02:26N 44°25' E 008°55'0 0.0
2018-Jun-17 01:56N 44°25' E 008°55'0 0.0
2018-Jun-17 01:26N 44°25' E 008°55'0 0.0
2018-Jun-17 00:56N 44°25' E 008°55'0 0.0
2018-Jun-17 00:29N 44°25' E 008°55'0 0.0
2018-Jun-16 23:59N 44°25' E 008°55'0 0.0
2018-Jun-16 23:26N 44°25' E 008°55'0 0.0
2018-Jun-16 22:56N 44°25' E 008°55'0 0.0
2018-Jun-16 22:29N 44°25' E 008°55'0 0.0
2018-Jun-16 21:59N 44°25' E 008°55'0 0.0
2018-Jun-16 21:29N 44°25' E 008°55'0 0.0
2018-Jun-16 20:59N 44°25' E 008°55'0 0.0
2018-Jun-16 20:29N 44°25' E 008°55'0 0.0
2018-Jun-16 19:59N 44°25' E 008°55'0 0.0
2018-Jun-16 19:26N 44°25' E 008°55'0 0.0
2018-Jun-16 18:59N 44°25' E 008°55'0 0.0
2018-Jun-16 18:23N 44°25' E 008°55'0 0.0
2018-Jun-16 17:59N 44°25' E 008°55'0 0.0
2018-Jun-16 17:29N 44°25' E 008°55'0 0.0
2018-Jun-16 16:59N 44°25' E 008°55'0 0.0
2018-Jun-16 16:29N 44°25' E 008°55'0 0.0
2018-Jun-16 15:59N 44°25' E 008°55'0 0.0
2018-Jun-16 15:20N 44°25' E 008°55'0 0.0
2018-Jun-16 14:56N 44°25' E 008°55'0 0.0
2018-Jun-16 14:29N 44°25' E 008°55'0 0.0
2018-Jun-16 13:59N 44°25' E 008°55'0 0.0
2018-Jun-16 13:29N 44°25' E 008°55'0 0.0
2018-Jun-16 12:50N 44°25' E 008°55'0 0.0
2018-Jun-16 12:20N 44°25' E 008°55'0 0.0
2018-Jun-16 11:56N 44°25' E 008°55'0 0.0
2018-Jun-16 11:26N 44°25' E 008°55'0 0.0
2018-Jun-16 10:56N 44°25' E 008°55'0 0.0
2018-Jun-16 10:16N 44°25' E 008°55'0 1.5
2018-Jun-16 10:00N 44°24' E 008°55'2 4.1
2018-Jun-16 09:31N 44°23' E 008°57'5 9.2
2018-Jun-16 09:01N 44°18' E 008°58'816.5
2018-Jun-16 08:30N 44°11' E 008°54'917.3
2018-Jun-16 08:00N 44°03' E 008°49'917.2
2018-Jun-16 07:30N 43°55' E 008°43'917.3
2018-Jun-16 07:00N 43°48' E 008°37'917.5
2018-Jun-16 06:30N 43°41' E 008°30'917.8
2018-Jun-16 06:00N 43°35' E 008°21'917.7
2018-Jun-16 05:30N 43°29' E 008°12'1019.9
2018-Jun-16 05:00N 43°22' E 008°02'1121.2
2018-Jun-16 04:30N 43°15' E 007°51'1121.1
2018-Jun-16 04:00N 43°08' E 007°40'1121.1
2018-Jun-16 03:30N 43°02' E 007°28'1020.9
2018-Jun-16 03:00N 42°57' E 007°15'1020.7
2018-Jun-16 02:30N 42°53' E 007°03'1020.5
2018-Jun-16 02:00N 42°48' E 006°51'1020.4
2018-Jun-16 01:30N 42°43' E 006°38'1020.7
2018-Jun-16 01:00N 42°38' E 006°26'1020.6
2018-Jun-16 00:30N 42°35' E 006°13'1020.6
2018-Jun-16 00:00N 42°30' E 005°60'1120.1
2018-Jun-15 23:28N 42°26' E 005°47'919.6
2018-Jun-15 23:00N 42°22' E 005°36'14319.9
2018-Jun-15 15:51N 41°20' E 002°43'919.7
2018-Jun-15 15:25N 41°18' E 002°32'820.2
2018-Jun-15 15:00N 41°17' E 002°21'816.3
2018-Jun-15 14:30N 41°18' E 002°10'3 6.4
2018-Jun-15 14:00N 41°21' E 002°10'0 0.0
2018-Jun-15 13:30N 41°21' E 002°10'0 0.0
2018-Jun-15 13:00N 41°21' E 002°10'0 0.0
2018-Jun-15 12:30N 41°21' E 002°10'0 0.0
2018-Jun-15 12:00N 41°21' E 002°10'0 0.0
2018-Jun-15 11:30N 41°21' E 002°10'0 0.0
2018-Jun-15 11:00N 41°21' E 002°10'0 0.0
2018-Jun-15 10:30N 41°21' E 002°10'0 0.0
2018-Jun-15 10:00N 41°21' E 002°10'0 0.0
2018-Jun-15 09:30N 41°21' E 002°10'0 0.0
2018-Jun-15 09:00N 41°21' E 002°10'0 0.0
2018-Jun-15 08:30N 41°21' E 002°10'0 0.0
2018-Jun-15 08:00N 41°21' E 002°10'0 0.0
2018-Jun-15 07:30N 41°21' E 002°10'0 0.0
2018-Jun-15 07:00N 41°21' E 002°10'0 0.0
2018-Jun-15 06:30N 41°21' E 002°10'0 0.0
2018-Jun-15 06:00N 41°21' E 002°10'0 0.0
2018-Jun-15 05:30N 41°21' E 002°10'0 0.0
2018-Jun-15 05:00N 41°21' E 002°10'0 0.0
2018-Jun-15 04:30N 41°21' E 002°10'0 0.2
2018-Jun-15 04:00N 41°21' E 002°10'2 3.7
2018-Jun-15 03:30N 41°19' E 002°10'5 9.5
2018-Jun-15 03:00N 41°15' E 002°11'612.8
2018-Jun-15 02:31N 41°08' E 002°12'713.1
2018-Jun-15 01:57N 41°01' E 002°12'2512.8
2018-Jun-15 00:00N 40°36' E 002°12'4214.0 200 / 51011.010.8 21.021.021.0
2018-Jun-14 21:00N 39°54' E 002°12'2511.3 150 / 41010.0 23.020.1
2018-Jun-14 18:45N 39°30' E 002°21'312.9
2018-Jun-14 18:30N 39°27' E 002°24'612.4
2018-Jun-14 18:00N 39°24' E 002°31'612.5
2018-Jun-14 17:30N 39°29' E 002°36'4 8.4
2018-Jun-14 17:00N 39°33' E 002°38'0 0.0
2018-Jun-14 16:29N 39°33' E 002°38'0 0.0
2018-Jun-14 15:59N 39°33' E 002°38'0 0.0
2018-Jun-14 15:29N 39°33' E 002°38'0 0.0
2018-Jun-14 14:59N 39°33' E 002°38'0 0.0
2018-Jun-14 14:29N 39°33' E 002°38'0 0.0
2018-Jun-14 13:59N 39°33' E 002°38'0 0.0
2018-Jun-14 13:29N 39°33' E 002°38'0 0.0
2018-Jun-14 12:59N 39°33' E 002°38'0 0.0
2018-Jun-14 12:29N 39°33' E 002°38'0 0.0
2018-Jun-14 11:59N 39°33' E 002°38'0 0.0
2018-Jun-14 11:29N 39°33' E 002°38'0 0.0
2018-Jun-14 10:59N 39°33' E 002°38'0 0.0
2018-Jun-14 10:29N 39°33' E 002°38'0 0.0
2018-Jun-14 09:59N 39°33' E 002°38'0 0.0
2018-Jun-14 09:29N 39°33' E 002°38'0 0.0
2018-Jun-14 08:59N 39°33' E 002°38'0 0.0
2018-Jun-14 08:29N 39°33' E 002°38'0 0.0
2018-Jun-14 07:59N 39°33' E 002°38'1 1.5
2018-Jun-14 07:30N 39°33' E 002°39'510.4
2018-Jun-14 07:00N 39°28' E 002°36'814.3
2018-Jun-14 06:28N 39°26' E 002°27'4314.4
2018-Jun-14 03:30N 40°09' E 002°25'1316.6
2018-Jun-14 02:43N 40°21' E 002°32'516.8
2018-Jun-14 02:25N 40°26' E 002°35'716.7
2018-Jun-14 01:58N 40°32' E 002°39'2416.3
2018-Jun-14 00:31N 40°54' E 002°51'316.0
2018-Jun-14 00:19N 40°57' E 002°53'3 9.2
2018-Jun-14 00:00N 41°00' E 002°54'6416.0 180 / 151008.010.8 21.021.021.0
2018-Jun-13 20:00N 42°00' E 003°24'8018.5 340 / 351008.0 21.018.0
2018-Jun-13 15:39N 43°18' E 003°50'317.2
2018-Jun-13 15:30N 43°20' E 003°48'510.6
2018-Jun-13 15:00N 43°24' E 003°43'0 0.4
2018-Jun-13 14:30N 43°24' E 003°43'0 0.0
2018-Jun-13 13:57N 43°24' E 003°43'0 0.0
2018-Jun-13 13:30N 43°24' E 003°43'0 0.0
2018-Jun-13 13:00N 43°24' E 003°43'0 0.0
2018-Jun-13 12:30N 43°24' E 003°43'0 0.0
2018-Jun-13 12:00N 43°24' E 003°43'0 0.0
2018-Jun-13 11:27N 43°24' E 003°43'0 0.0
2018-Jun-13 11:00N 43°24' E 003°43'0 0.0
2018-Jun-13 10:30N 43°24' E 003°43'0 0.0
2018-Jun-13 10:00N 43°24' E 003°43'0 0.0
2018-Jun-13 09:30N 43°24' E 003°43'0 0.0
2018-Jun-13 09:00N 43°24' E 003°43'0 0.0
2018-Jun-13 08:30N 43°24' E 003°43'0 0.0
2018-Jun-13 07:57N 43°24' E 003°43'0 0.0
2018-Jun-13 07:30N 43°24' E 003°43'0 0.0
2018-Jun-13 07:00N 43°24' E 003°43'0 0.0
2018-Jun-13 06:30N 43°24' E 003°43'0 0.0
2018-Jun-13 06:00N 43°24' E 003°43'0 0.0
2018-Jun-13 05:30N 43°24' E 003°43'0 0.0
2018-Jun-13 05:00N 43°24' E 003°43'2 4.1
2018-Jun-13 04:30N 43°23' E 003°45'5 9.6
2018-Jun-13 04:00N 43°20' E 003°50'611.8
2018-Jun-13 03:30N 43°14' E 003°50'5014.3
2018-Jun-13 00:00N 42°24' E 003°42'7017.4 310 / 391006.0 5.4 19.019.019.0
2018-Jun-12 20:00N 41°18' E 003°12'2810.6 050 / 181004.0 20.015.3
2018-Jun-12 17:21N 41°23' E 002°35'513.5
2018-Jun-12 16:59N 41°20' E 002°30'613.2
2018-Jun-12 16:30N 41°16' E 002°23'713.6
2018-Jun-12 16:01N 41°15' E 002°15'611.6
2018-Jun-12 15:30N 41°19' E 002°10'2 4.5
2018-Jun-12 15:00N 41°22' E 002°11'0 0.0
2018-Jun-12 14:30N 41°22' E 002°11'0 0.0
2018-Jun-12 14:00N 41°22' E 002°11'0 0.0
2018-Jun-12 13:30N 41°22' E 002°11'0 0.0
2018-Jun-12 13:00N 41°22' E 002°11'0 0.0
2018-Jun-12 12:30N 41°22' E 002°11'0 0.0
2018-Jun-12 12:00N 41°22' E 002°11'0 0.0
2018-Jun-12 11:30N 41°22' E 002°11'0 0.0
2018-Jun-12 11:00N 41°22' E 002°11'0 0.0
2018-Jun-12 10:30N 41°22' E 002°11'0 0.0
2018-Jun-12 10:00N 41°22' E 002°11'0 0.0
2018-Jun-12 09:30N 41°22' E 002°11'0 0.0
2018-Jun-12 09:00N 41°22' E 002°11'0 0.0
2018-Jun-12 08:30N 41°22' E 002°11'0 0.0
2018-Jun-12 08:00N 41°22' E 002°11'0 0.0
2018-Jun-12 07:30N 41°22' E 002°11'0 0.0
2018-Jun-12 07:00N 41°22' E 002°11'0 0.0
2018-Jun-12 06:30N 41°22' E 002°11'0 0.0
2018-Jun-12 06:00N 41°22' E 002°11'0 0.0
2018-Jun-12 05:30N 41°22' E 002°11'0 0.0
2018-Jun-12 05:00N 41°22' E 002°11'0 0.0
2018-Jun-12 04:30N 41°22' E 002°11'0 0.3
2018-Jun-12 04:00N 41°22' E 002°11'3 5.1
2018-Jun-12 03:30N 41°19' E 002°10'4 8.2
2018-Jun-12 03:00N 41°15' E 002°11'  
Track history (hours):
 
Tides and Currents Weather Stations Pressure Air Temp Water Temp Dewpoint Dewpoint Depression Visibility Wind Speed Wind Dir Waves Ship Positions

Vision of The Seas

Operator: Royal Caribbean Cruises Ltd

Last reported at 2018-Jun-22 02:34 UTC. Time now 2018-Jun-22 08:58 UTC.
Position N 41°55' E 011°15'.

Type: Passenger vessel. MMSI: 311321000.

Date/timePositionNaut miles runAvg speedWind from/ knotsBaromVisibWave heightAir tempDewpointWater temp
2018-Jun-22 02:34N 41°55' E 011°15'111.0
2018-Jun-22 02:27N 41°56' E 011°13'510.1
2018-Jun-22 01:55N 41°58' E 011°07'4 9.9
2018-Jun-22 01:30N 41°59' E 011°01'5 9.8
2018-Jun-22 01:00N 42°00' E 010°55'714.3
2018-Jun-22 00:30N 42°05' E 010°47'714.8
2018-Jun-22 00:00N 42°11' E 010°41'714.9
2018-Jun-21 23:30N 42°17' E 010°35'714.9
2018-Jun-21 23:00N 42°23' E 010°30'714.9
2018-Jun-21 22:30N 42°28' E 010°23'1515.1
2018-Jun-21 21:31N 42°39' E 010°08'014.8
2018-Jun-21 21:30N 42°39' E 010°08'815.1
2018-Jun-21 21:00N 42°44' E 010°01'714.8
2018-Jun-21 20:30N 42°52' E 009°60'815.2
2018-Jun-21 20:00N 42°59' E 010°01'715.0
2018-Jun-21 19:30N 43°06' E 010°03'815.2
2018-Jun-21 19:00N 43°14' E 010°05'815.2
2018-Jun-21 18:30N 43°21' E 010°06'815.1
2018-Jun-21 18:00N 43°29' E 010°08'713.2
2018-Jun-21 17:31N 43°32' E 010°16'2 3.4
2018-Jun-21 17:00N 43°33' E 010°18'0 0.0
2018-Jun-21 16:30N 43°33' E 010°18'0 0.0
2018-Jun-21 16:00N 43°33' E 010°18'0 0.0
2018-Jun-21 15:30N 43°33' E 010°18'0 0.0
2018-Jun-21 15:00N 43°33' E 010°18'0 0.0
2018-Jun-21 14:30N 43°33' E 010°18'0 0.0
2018-Jun-21 13:57N 43°33' E 010°18'0 0.0
2018-Jun-21 13:30N 43°33' E 010°18'0 0.0
2018-Jun-21 13:00N 43°33' E 010°18'0 0.0
2018-Jun-21 12:30N 43°33' E 010°18'0 0.0
2018-Jun-21 11:57N 43°33' E 010°18'0 0.0
2018-Jun-21 11:30N 43°33' E 010°18'0 0.0
2018-Jun-21 11:00N 43°33' E 010°18'0 0.0
2018-Jun-21 10:30N 43°33' E 010°18'0 0.0
2018-Jun-21 09:57N 43°33' E 010°18'0 0.0
2018-Jun-21 09:24N 43°33' E 010°18'0 0.0
2018-Jun-21 08:51N 43°33' E 010°18'0 0.0
2018-Jun-21 08:30N 43°33' E 010°18'0 0.0
2018-Jun-21 07:54N 43°33' E 010°18'0 0.0
2018-Jun-21 07:30N 43°33' E 010°18'0 0.0
2018-Jun-21 06:57N 43°33' E 010°18'0 0.0
2018-Jun-21 06:30N 43°33' E 010°18'0 0.0
2018-Jun-21 06:00N 43°33' E 010°18'0 0.0
2018-Jun-21 05:30N 43°33' E 010°18'0 0.0
2018-Jun-21 05:00N 43°33' E 010°18'0 0.0
2018-Jun-21 04:30N 43°33' E 010°18'1 2.2
2018-Jun-21 04:00N 43°32' E 010°17'4 8.3
2018-Jun-21 03:30N 43°30' E 010°13'611.9
2018-Jun-21 03:00N 43°29' E 010°05'612.2
2018-Jun-21 02:30N 43°31' E 009°56'612.3
2018-Jun-21 02:00N 43°32' E 009°48'612.5
2018-Jun-21 01:30N 43°33' E 009°39'612.3
2018-Jun-21 01:00N 43°33' E 009°31'612.4
2018-Jun-21 00:30N 43°34' E 009°22'612.4
2018-Jun-21 00:00N 43°34' E 009°14'4303.8
2018-Jun-21 00:00N 43°30' E 009°12'713.8 200 / 41014.010.8 24.021.122.0
2018-Jun-20 23:30N 43°35' E 009°05'612.5
2018-Jun-20 23:00N 43°35' E 008°57'612.5
2018-Jun-20 22:30N 43°35' E 008°48'612.6
2018-Jun-20 22:00N 43°35' E 008°39'612.5
2018-Jun-20 21:30N 43°36' E 008°31'612.6
2018-Jun-20 21:00N 43°36' E 008°22'612.8
2018-Jun-20 20:30N 43°37' E 008°13'613.1
2018-Jun-20 20:00N 43°37' E 008°04'612.6
2018-Jun-20 19:31N 43°37' E 007°56'612.5
2018-Jun-20 19:00N 43°38' E 007°47'1212.6
2018-Jun-20 18:02N 43°39' E 007°30'212.7
2018-Jun-20 17:52N 43°39' E 007°27'512.5
2018-Jun-20 17:30N 43°39' E 007°21'2 0.2
2018-Jun-20 06:32N 43°40' E 007°19'1 8.2
2018-Jun-20 06:28N 43°39' E 007°18'916.1
2018-Jun-20 05:56N 43°32' E 007°12'716.9
2018-Jun-20 05:30N 43°26' E 007°06'816.7
2018-Jun-20 05:00N 43°20' E 006°59'816.7
2018-Jun-20 04:30N 43°13' E 006°52'816.8
2018-Jun-20 04:00N 43°07' E 006°45'816.7
2018-Jun-20 03:30N 43°01' E 006°37'816.7
2018-Jun-20 03:00N 42°55' E 006°29'816.8
2018-Jun-20 02:31N 42°50' E 006°19'917.1
2018-Jun-20 02:00N 42°46' E 006°09'917.3
2018-Jun-20 01:30N 42°42' E 005°58'917.7
2018-Jun-20 00:59N 42°38' E 005°47'1918.9
2018-Jun-20 00:00N 42°30' E 005°24'7618.9 290 / 141015.010.8 21.019.521.0
2018-Jun-19 20:00N 41°54' E 003°54'1816.6 250 / 51015.0 22.017.4
2018-Jun-19 18:53N 41°48' E 003°31'920.1
2018-Jun-19 18:25N 41°43' E 003°20'820.2
2018-Jun-19 18:00N 41°39' E 003°10'1020.1
2018-Jun-19 17:29N 41°34' E 002°58'1020.2
2018-Jun-19 17:00N 41°30' E 002°46'1020.2
2018-Jun-19 16:30N 41°25' E 002°34'1020.0
2018-Jun-19 16:00N 41°20' E 002°23'1019.5
2018-Jun-19 15:31N 41°16' E 002°11'510.5
2018-Jun-19 15:00N 41°21' E 002°10'1 1.5
2018-Jun-19 14:28N 41°22' E 002°11'0 0.0
2018-Jun-19 13:58N 41°22' E 002°11'0 0.0
2018-Jun-19 13:28N 41°22' E 002°11'0 0.0
2018-Jun-19 12:58N 41°22' E 002°11'0 0.0
2018-Jun-19 12:28N 41°22' E 002°11'0 0.0
2018-Jun-19 11:58N 41°22' E 002°11'0 0.0
2018-Jun-19 11:28N 41°22' E 002°11'0 0.0
2018-Jun-19 10:58N 41°22' E 002°11'0 0.0
2018-Jun-19 10:28N 41°22' E 002°11'0 0.0
2018-Jun-19 09:58N 41°22' E 002°11'0 0.0
2018-Jun-19 09:28N 41°22' E 002°11'0 0.0
2018-Jun-19 08:55N 41°22' E 002°11'0 0.0
2018-Jun-19 08:28N 41°22' E 002°11'0 0.0
2018-Jun-19 07:58N 41°22' E 002°11'0 0.0
2018-Jun-19 07:28N 41°22' E 002°11'0 0.0
2018-Jun-19 06:58N 41°22' E 002°11'0 0.0
2018-Jun-19 06:28N 41°22' E 002°11'0 0.0
2018-Jun-19 05:58N 41°22' E 002°11'0 0.0
2018-Jun-19 05:28N 41°22' E 002°11'0 0.0
2018-Jun-19 04:58N 41°22' E 002°11'0 0.0
2018-Jun-19 04:28N 41°22' E 002°11'0 0.0
2018-Jun-19 03:58N 41°22' E 002°11'0 0.0
2018-Jun-19 03:28N 41°22' E 002°11'0 0.0
2018-Jun-19 02:58N 41°22' E 002°11'0 0.0
2018-Jun-19 02:28N 41°22' E 002°11'0 0.0
2018-Jun-19 01:58N 41°22' E 002°11'0 0.0
2018-Jun-19 01:28N 41°22' E 002°11'0 0.0
2018-Jun-19 00:58N 41°22' E 002°11'0 0.0
2018-Jun-19 00:28N 41°22' E 002°11'0 0.0
2018-Jun-18 23:58N 41°22' E 002°11'0 0.0
2018-Jun-18 23:28N 41°22' E 002°11'0 0.0
2018-Jun-18 22:58N 41°22' E 002°11'0 0.0
2018-Jun-18 22:28N 41°22' E 002°11'0 0.0
2018-Jun-18 21:58N 41°22' E 002°11'0 0.0
2018-Jun-18 21:28N 41°22' E 002°11'0 0.0
2018-Jun-18 20:58N 41°22' E 002°11'0 0.0
2018-Jun-18 20:28N 41°22' E 002°11'0 0.0
2018-Jun-18 19:58N 41°22' E 002°11'0 0.0
2018-Jun-18 19:28N 41°22' E 002°11'0 0.0
2018-Jun-18 18:58N 41°22' E 002°11'0 0.0
2018-Jun-18 18:28N 41°22' E 002°11'0 0.0
2018-Jun-18 17:58N 41°22' E 002°11'0 0.0
2018-Jun-18 17:28N 41°22' E 002°11'0 0.0
2018-Jun-18 16:58N 41°22' E 002°11'0 0.0
2018-Jun-18 16:28N 41°22' E 002°11'0 0.0
2018-Jun-18 15:58N 41°22' E 002°11'0 0.0
2018-Jun-18 15:28N 41°22' E 002°11'0 0.0
2018-Jun-18 14:58N 41°22' E 002°11'0 0.0
2018-Jun-18 14:28N 41°22' E 002°11'0 0.0
2018-Jun-18 13:58N 41°22' E 002°11'0 0.0
2018-Jun-18 13:28N 41°22' E 002°11'0 0.0
2018-Jun-18 12:58N 41°22' E 002°11'0 0.0
2018-Jun-18 12:28N 41°22' E 002°11'0 0.0
2018-Jun-18 11:58N 41°22' E 002°11'0 0.0
2018-Jun-18 11:25N 41°22' E 002°11'0 0.0
2018-Jun-18 10:58N 41°22' E 002°11'0 0.0
2018-Jun-18 10:28N 41°22' E 002°11'0 0.0
2018-Jun-18 09:55N 41°22' E 002°11'0 0.0
2018-Jun-18 09:28N 41°22' E 002°11'0 0.0
2018-Jun-18 08:58N 41°22' E 002°11'0 0.0
2018-Jun-18 08:28N 41°22' E 002°11'0 0.4
2018-Jun-18 08:00N 41°22' E 002°11'2 4.5
2018-Jun-18 07:30N 41°20' E 002°10'510.3
2018-Jun-18 07:00N 41°15' E 002°13'816.5
2018-Jun-18 06:30N 41°16' E 002°24'917.4
2018-Jun-18 05:59N 41°19' E 002°36'11318.9
2018-Jun-18 00:00N 42°06' E 004°54'4820.1
2018-Jun-17 21:36N 42°27' E 005°52'519.3
2018-Jun-17 21:20N 42°29' E 005°58'719.3
2018-Jun-17 21:00N 42°32' E 006°07'1019.4
2018-Jun-17 20:30N 42°36' E 006°18'0 0.7
2018-Jun-17 20:00N 42°36' E 006°18'12125.0 300 / 331008.0 22.017.423.0
2018-Jun-17 19:54N 42°42' E 006°33'819.8
2018-Jun-17 19:30N 42°45' E 006°42'1019.8
2018-Jun-17 19:00N 42°50' E 006°54'1019.6
2018-Jun-17 18:30N 42°54' E 007°06'1020.2
2018-Jun-17 18:00N 42°60' E 007°17'1020.2
2018-Jun-17 17:30N 43°05' E 007°29'1020.1
2018-Jun-17 17:00N 43°11' E 007°40'1020.1
2018-Jun-17 16:30N 43°17' E 007°52'1019.9
2018-Jun-17 16:00N 43°22' E 008°03'1019.9
2018-Jun-17 15:30N 43°29' E 008°13'1019.8
2018-Jun-17 15:00N 43°36' E 008°23'1019.7
2018-Jun-17 14:30N 43°43' E 008°32'1020.2
2018-Jun-17 14:00N 43°52' E 008°38'1020.5
2018-Jun-17 13:30N 44°00' E 008°47'1020.4
2018-Jun-17 13:00N 44°10' E 008°53'1020.1
2018-Jun-17 12:30N 44°19' E 008°58'510.3
2018-Jun-17 12:00N 44°24' E 008°55'1 1.3
2018-Jun-17 11:26N 44°25' E 008°55'0 0.0
2018-Jun-17 10:56N 44°25' E 008°55'0 0.0
2018-Jun-17 10:29N 44°25' E 008°55'0 0.0
2018-Jun-17 09:59N 44°25' E 008°55'0 0.0
2018-Jun-17 09:29N 44°25' E 008°55'0 0.0
2018-Jun-17 08:59N 44°25' E 008°55'0 0.0
2018-Jun-17 08:29N 44°25' E 008°55'0 0.0
2018-Jun-17 07:59N 44°25' E 008°55'0 0.0
2018-Jun-17 07:29N 44°25' E 008°55'0 0.0
2018-Jun-17 06:59N 44°25' E 008°55'0 0.0
2018-Jun-17 06:20N 44°25' E 008°55'0 0.0
2018-Jun-17 05:59N 44°25' E 008°55'0 0.0
2018-Jun-17 05:26N 44°25' E 008°55'0 0.0
2018-Jun-17 04:53N 44°25' E 008°55'0 0.0
2018-Jun-17 04:23N 44°25' E 008°55'0 0.0
2018-Jun-17 03:56N 44°25' E 008°55'0 0.0
2018-Jun-17 03:23N 44°25' E 008°55'0 0.0
2018-Jun-17 02:59N 44°25' E 008°55'0 0.0
2018-Jun-17 02:26N 44°25' E 008°55'0 0.0
2018-Jun-17 01:56N 44°25' E 008°55'0 0.0
2018-Jun-17 01:26N 44°25' E 008°55'0 0.0
2018-Jun-17 00:56N 44°25' E 008°55'0 0.0
2018-Jun-17 00:29N 44°25' E 008°55'0 0.0
2018-Jun-16 23:59N 44°25' E 008°55'0 0.0
2018-Jun-16 23:26N 44°25' E 008°55'0 0.0
2018-Jun-16 22:56N 44°25' E 008°55'0 0.0
2018-Jun-16 22:29N 44°25' E 008°55'0 0.0
2018-Jun-16 21:59N 44°25' E 008°55'0 0.0
2018-Jun-16 21:29N 44°25' E 008°55'0 0.0
2018-Jun-16 20:59N 44°25' E 008°55'0 0.0
2018-Jun-16 20:29N 44°25' E 008°55'0 0.0
2018-Jun-16 19:59N 44°25' E 008°55'0 0.0
2018-Jun-16 19:26N 44°25' E 008°55'0 0.0
2018-Jun-16 18:59N 44°25' E 008°55'0 0.0
2018-Jun-16 18:23N 44°25' E 008°55'0 0.0
2018-Jun-16 17:59N 44°25' E 008°55'0 0.0
2018-Jun-16 17:29N 44°25' E 008°55'0 0.0
2018-Jun-16 16:59N 44°25' E 008°55'0 0.0
2018-Jun-16 16:29N 44°25' E 008°55'0 0.0
2018-Jun-16 15:59N 44°25' E 008°55'0 0.0
2018-Jun-16 15:20N 44°25' E 008°55'0 0.0
2018-Jun-16 14:56N 44°25' E 008°55'0 0.0
2018-Jun-16 14:29N 44°25' E 008°55'0 0.0
2018-Jun-16 13:59N 44°25' E 008°55'0 0.0
2018-Jun-16 13:29N 44°25' E 008°55'0 0.0
2018-Jun-16 12:50N 44°25' E 008°55'0 0.0
2018-Jun-16 12:20N 44°25' E 008°55'0 0.0
2018-Jun-16 11:56N 44°25' E 008°55'0 0.0
2018-Jun-16 11:26N 44°25' E 008°55'0 0.0
2018-Jun-16 10:56N 44°25' E 008°55'0 0.0
2018-Jun-16 10:16N 44°25' E 008°55'0 1.5
2018-Jun-16 10:00N 44°24' E 008°55'2 4.1
2018-Jun-16 09:31N 44°23' E 008°57'5 9.2
2018-Jun-16 09:01N 44°18' E 008°58'816.5
2018-Jun-16 08:30N 44°11' E 008°54'917.3
2018-Jun-16 08:00N 44°03' E 008°49'917.2
2018-Jun-16 07:30N 43°55' E 008°43'917.3
2018-Jun-16 07:00N 43°48' E 008°37'917.5
2018-Jun-16 06:30N 43°41' E 008°30'917.8
2018-Jun-16 06:00N 43°35' E 008°21'917.7
2018-Jun-16 05:30N 43°29' E 008°12'1019.9
2018-Jun-16 05:00N 43°22' E 008°02'1121.2
2018-Jun-16 04:30N 43°15' E 007°51'1121.1
2018-Jun-16 04:00N 43°08' E 007°40'1121.1
2018-Jun-16 03:30N 43°02' E 007°28'1020.9
2018-Jun-16 03:00N 42°57' E 007°15'1020.7
2018-Jun-16 02:30N 42°53' E 007°03'1020.5
2018-Jun-16 02:00N 42°48' E 006°51'1020.4
2018-Jun-16 01:30N 42°43' E 006°38'1020.7
2018-Jun-16 01:00N 42°38' E 006°26'1020.6
2018-Jun-16 00:30N 42°35' E 006°13'1020.6
2018-Jun-16 00:00N 42°30' E 005°60'1120.1
2018-Jun-15 23:28N 42°26' E 005°47'919.6
2018-Jun-15 23:00N 42°22' E 005°36'14319.9
2018-Jun-15 15:51N 41°20' E 002°43'919.7
2018-Jun-15 15:25N 41°18' E 002°32'820.2
2018-Jun-15 15:00N 41°17' E 002°21'816.3
2018-Jun-15 14:30N 41°18' E 002°10'3 6.4
2018-Jun-15 14:00N 41°21' E 002°10'0 0.0
2018-Jun-15 13:30N 41°21' E 002°10'0 0.0
2018-Jun-15 13:00N 41°21' E 002°10'0 0.0
2018-Jun-15 12:30N 41°21' E 002°10'0 0.0
2018-Jun-15 12:00N 41°21' E 002°10'0 0.0
2018-Jun-15 11:30N 41°21' E 002°10'0 0.0
2018-Jun-15 11:00N 41°21' E 002°10'0 0.0
2018-Jun-15 10:30N 41°21' E 002°10'0 0.0
2018-Jun-15 10:00N 41°21' E 002°10'0 0.0
2018-Jun-15 09:30N 41°21' E 002°10'0 0.0
2018-Jun-15 09:00N 41°21' E 002°10'0 0.0
2018-Jun-15 08:30N 41°21' E 002°10'0 0.0
2018-Jun-15 08:00N 41°21' E 002°10'0 0.0
2018-Jun-15 07:30N 41°21' E 002°10'0 0.0
2018-Jun-15 07:00N 41°21' E 002°10'0 0.0
2018-Jun-15 06:30N 41°21' E 002°10'0 0.0
2018-Jun-15 06:00N 41°21' E 002°10'0 0.0
2018-Jun-15 05:30N 41°21' E 002°10'0 0.0
2018-Jun-15 05:00N 41°21' E 002°10'0 0.0
2018-Jun-15 04:30N 41°21' E 002°10'0 0.2
2018-Jun-15 04:00N 41°21' E 002°10'2 3.7
2018-Jun-15 03:30N 41°19' E 002°10'5 9.5
2018-Jun-15 03:00N 41°15' E 002°11'612.8
2018-Jun-15 02:31N 41°08' E 002°12'713.1
2018-Jun-15 01:57N 41°01' E 002°12'2512.8
2018-Jun-15 00:00N 40°36' E 002°12'4214.0 200 / 51011.010.8 21.021.021.0
2018-Jun-14 21:00N 39°54' E 002°12'2511.3 150 / 41010.0 23.020.1
2018-Jun-14 18:45N 39°30' E 002°21'312.9
2018-Jun-14 18:30N 39°27' E 002°24'612.4
2018-Jun-14 18:00N 39°24' E 002°31'612.5
2018-Jun-14 17:30N 39°29' E 002°36'4 8.4
2018-Jun-14 17:00N 39°33' E 002°38'0 0.0
2018-Jun-14 16:29N 39°33' E 002°38'0 0.0
2018-Jun-14 15:59N 39°33' E 002°38'0 0.0
2018-Jun-14 15:29N 39°33' E 002°38'0 0.0
2018-Jun-14 14:59N 39°33' E 002°38'0 0.0
2018-Jun-14 14:29N 39°33' E 002°38'0 0.0
2018-Jun-14 13:59N 39°33' E 002°38'0 0.0
2018-Jun-14 13:29N 39°33' E 002°38'0 0.0
2018-Jun-14 12:59N 39°33' E 002°38'0 0.0
2018-Jun-14 12:29N 39°33' E 002°38'0 0.0
2018-Jun-14 11:59N 39°33' E 002°38'0 0.0
2018-Jun-14 11:29N 39°33' E 002°38'0 0.0
2018-Jun-14 10:59N 39°33' E 002°38'0 0.0
2018-Jun-14 10:29N 39°33' E 002°38'0 0.0
2018-Jun-14 09:59N 39°33' E 002°38'0 0.0
2018-Jun-14 09:29N 39°33' E 002°38'0 0.0
2018-Jun-14 08:59N 39°33' E 002°38'0 0.0
2018-Jun-14 08:29N 39°33' E 002°38'0 0.0
2018-Jun-14 07:59N 39°33' E 002°38'1 1.5
2018-Jun-14 07:30N 39°33' E 002°39'510.4
2018-Jun-14 07:00N 39°28' E 002°36'814.3
2018-Jun-14 06:28N 39°26' E 002°27'4314.4
2018-Jun-14 03:30N 40°09' E 002°25'1316.6
2018-Jun-14 02:43N 40°21' E 002°32'516.8
2018-Jun-14 02:25N 40°26' E 002°35'716.7
2018-Jun-14 01:58N 40°32' E 002°39'2416.3
2018-Jun-14 00:31N 40°54' E 002°51'316.0
2018-Jun-14 00:19N 40°57' E 002°53'3 9.2
2018-Jun-14 00:00N 41°00' E 002°54'6416.0 180 / 151008.010.8 21.021.021.0
2018-Jun-13 20:00N 42°00' E 003°24'8018.5 340 / 351008.0 21.018.0
2018-Jun-13 15:39N 43°18' E 003°50'317.2
2018-Jun-13 15:30N 43°20' E 003°48'510.6
2018-Jun-13 15:00N 43°24' E 003°43'0 0.4
2018-Jun-13 14:30N 43°24' E 003°43'0 0.0
2018-Jun-13 13:57N 43°24' E 003°43'0 0.0
2018-Jun-13 13:30N 43°24' E 003°43'0 0.0
2018-Jun-13 13:00N 43°24' E 003°43'0 0.0
2018-Jun-13 12:30N 43°24' E 003°43'0 0.0
2018-Jun-13 12:00N 43°24' E 003°43'0 0.0
2018-Jun-13 11:27N 43°24' E 003°43'0 0.0
2018-Jun-13 11:00N 43°24' E 003°43'0 0.0
2018-Jun-13 10:30N 43°24' E 003°43'0 0.0
2018-Jun-13 10:00N 43°24' E 003°43'0 0.0
2018-Jun-13 09:30N 43°24' E 003°43'0 0.0
2018-Jun-13 09:00N 43°24' E 003°43'0 0.0
2018-Jun-13 08:30N 43°24' E 003°43'0 0.0
2018-Jun-13 07:57N 43°24' E 003°43'0 0.0
2018-Jun-13 07:30N 43°24' E 003°43'0 0.0
2018-Jun-13 07:00N 43°24' E 003°43'0 0.0
2018-Jun-13 06:30N 43°24' E 003°43'0 0.0
2018-Jun-13 06:00N 43°24' E 003°43'0 0.0
2018-Jun-13 05:30N 43°24' E 003°43'0 0.0
2018-Jun-13 05:00N 43°24' E 003°43'2 4.1
2018-Jun-13 04:30N 43°23' E 003°45'5 9.6
2018-Jun-13 04:00N 43°20' E 003°50'611.8
2018-Jun-13 03:30N 43°14' E 003°50'5014.3
2018-Jun-13 00:00N 42°24' E 003°42'7017.4 310 / 391006.0 5.4 19.019.019.0
2018-Jun-12 20:00N 41°18' E 003°12'2810.6 050 / 181004.0 20.015.3
2018-Jun-12 17:21N 41°23' E 002°35'513.5
2018-Jun-12 16:59N 41°20' E 002°30'613.2
2018-Jun-12 16:30N 41°16' E 002°23'713.6
2018-Jun-12 16:01N 41°15' E 002°15'611.6
2018-Jun-12 15:30N 41°19' E 002°10'2 4.5
2018-Jun-12 15:00N 41°22' E 002°11'0 0.0
2018-Jun-12 14:30N 41°22' E 002°11'0 0.0
2018-Jun-12 14:00N 41°22' E 002°11'0 0.0
2018-Jun-12 13:30N 41°22' E 002°11'0 0.0
2018-Jun-12 13:00N 41°22' E 002°11'0 0.0
2018-Jun-12 12:30N 41°22' E 002°11'0 0.0
2018-Jun-12 12:00N 41°22' E 002°11'0 0.0
2018-Jun-12 11:30N 41°22' E 002°11'0 0.0
2018-Jun-12 11:00N 41°22' E 002°11'0 0.0
2018-Jun-12 10:30N 41°22' E 002°11'0 0.0
2018-Jun-12 10:00N 41°22' E 002°11'0 0.0
2018-Jun-12 09:30N 41°22' E 002°11'0 0.0
2018-Jun-12 09:00N 41°22' E 002°11'0 0.0
2018-Jun-12 08:30N 41°22' E 002°11'0 0.0
2018-Jun-12 08:00N 41°22' E 002°11'0 0.0
2018-Jun-12 07:30N 41°22' E 002°11'0 0.0
2018-Jun-12 07:00N 41°22' E 002°11'0 0.0
2018-Jun-12 06:30N 41°22' E 002°11'0 0.0
2018-Jun-12 06:00N 41°22' E 002°11'0 0.0
2018-Jun-12 05:30N 41°22' E 002°11'0 0.0
2018-Jun-12 05:00N 41°22' E 002°11'0 0.0
2018-Jun-12 04:30N 41°22' E 002°11'0 0.3
2018-Jun-12 04:00N 41°22' E 002°11'3 5.1
2018-Jun-12 03:30N 41°19' E 002°10'4 8.2
2018-Jun-12 03:00N 41°15' E 002°11'  

Dump ship's entire track history